createdAt,value
2023-03-15T00:03:59.910Z,99799.03
2023-03-15T00:09:02.094Z,99799.25
2023-03-15T00:14:03.586Z,99800.63
2023-03-15T00:19:05.148Z,99810.38
2023-03-15T00:24:06.962Z,99814.81
2023-03-15T00:29:08.373Z,99829.94
2023-03-15T00:34:09.724Z,99829.22
2023-03-15T00:39:11.398Z,99839.34
2023-03-15T00:44:13.079Z,99836.50
2023-03-15T00:49:14.497Z,99846.09
2023-03-15T00:54:15.919Z,99844.59
2023-03-15T00:59:17.308Z,99854.41
2023-03-15T01:04:18.766Z,99859.13
2023-03-15T01:09:20.416Z,99878.97
2023-03-15T01:14:21.787Z,99881.72
2023-03-15T01:19:23.134Z,99876.44
2023-03-15T01:24:24.526Z,99882.03
2023-03-15T01:29:25.884Z,99885.63
2023-03-15T01:34:27.629Z,99886.78
2023-03-15T01:39:30.052Z,99889.63
2023-03-15T01:45:26.140Z,99896.78
2023-03-15T01:50:27.542Z,99900.88
2023-03-15T01:55:29.686Z,99914.09
2023-03-15T02:00:31.596Z,99915.22
2023-03-15T02:05:45.961Z,99911.38
2023-03-15T02:10:51.858Z,99924.19
2023-03-15T02:15:53.572Z,99934.84
2023-03-15T02:21:03.993Z,99933.28
2023-03-15T02:26:21.939Z,99923.13
2023-03-15T02:31:23.294Z,99921.22
2023-03-15T02:36:30.066Z,99935.47
2023-03-15T02:41:36.499Z,99936.91
2023-03-15T02:46:38.296Z,99929.28
2023-03-15T02:51:39.672Z,99940.00
2023-03-15T02:56:41.034Z,99946.50
2023-03-15T03:01:45.654Z,99944.97
2023-03-15T03:06:46.983Z,99941.41
2023-03-15T03:11:48.322Z,99937.91
2023-03-15T03:16:51.327Z,99955.72
2023-03-15T03:21:53.645Z,99967.19
2023-03-15T03:26:58.016Z,99975.25
2023-03-15T03:32:00.631Z,99994.34
2023-03-15T03:37:02.144Z,99996.41
2023-03-15T03:42:03.791Z,99999.47
2023-03-15T03:47:05.313Z,100001.16
2023-03-15T03:52:06.852Z,100002.88
2023-03-15T03:57:09.422Z,100011.72
2023-03-15T04:02:10.953Z,100010.31
2023-03-15T04:07:12.321Z,100026.38
2023-03-15T04:12:13.840Z,100038.53
2023-03-15T04:17:15.183Z,100032.38
2023-03-15T04:22:16.548Z,100032.16
2023-03-15T04:27:17.977Z,100035.19
2023-03-15T04:32:19.650Z,100036.25
2023-03-15T04:37:20.962Z,100045.66
2023-03-15T04:42:22.813Z,100055.22
2023-03-15T04:47:24.232Z,100051.84
2023-03-15T04:52:25.543Z,100056.19
2023-03-15T04:57:27.003Z,100051.16
2023-03-15T05:02:28.316Z,100054.75
2023-03-15T05:07:29.657Z,100051.50
2023-03-15T05:12:32.061Z,100057.88
2023-03-15T05:17:33.738Z,100068.59
2023-03-15T05:22:35.196Z,100071.41
2023-03-15T05:27:37.376Z,100075.13
2023-03-15T05:32:39.704Z,100074.44
2023-03-15T05:37:42.302Z,100089.28
2023-03-15T05:42:43.813Z,100074.41
2023-03-15T05:47:45.122Z,100095.13
2023-03-15T05:52:46.478Z,100102.06
2023-03-15T05:57:47.807Z,100099.97
2023-03-15T06:02:50.061Z,100098.50
2023-03-15T06:07:51.348Z,100098.19
2023-03-15T06:12:52.759Z,100098.34
2023-03-15T06:17:54.156Z,100102.88
2023-03-15T06:22:55.506Z,100108.47
2023-03-15T06:27:56.888Z,100120.59
2023-03-15T06:32:58.263Z,100120.38
2023-03-15T06:37:59.912Z,100123.06
2023-03-15T06:43:05.837Z,100116.31
2023-03-15T06:48:07.167Z,100127.63
2023-03-15T06:53:08.855Z,100141.81
2023-03-15T06:58:10.760Z,100145.88
2023-03-15T07:03:12.200Z,100152.28
2023-03-15T07:08:13.588Z,100156.72
2023-03-15T07:13:15.383Z,100143.09
2023-03-15T07:18:16.810Z,100159.09
2023-03-15T07:23:18.115Z,100156.06
2023-03-15T07:28:19.580Z,100157.78
2023-03-15T07:33:22.511Z,100174.09
2023-03-15T07:38:26.396Z,100185.19
2023-03-15T07:43:29.342Z,100190.03
2023-03-15T07:48:31.113Z,100177.69
2023-03-15T07:53:32.940Z,100190.91
2023-03-15T07:58:34.618Z,100200.09
2023-03-15T08:03:36.474Z,100207.34
2023-03-15T08:08:37.903Z,100205.13
2023-03-15T08:13:39.557Z,100217.03
2023-03-15T08:18:40.918Z,100217.66
2023-03-15T08:23:42.280Z,100232.50
2023-03-15T08:28:43.611Z,100232.25
2023-03-15T08:33:45.197Z,100228.25
2023-03-15T08:38:46.645Z,100238.22
2023-03-15T08:43:48.075Z,100237.25
2023-03-15T08:48:49.576Z,100250.31
2023-03-15T08:53:51.891Z,100256.41
2023-03-15T08:58:53.210Z,100269.69
2023-03-15T09:03:54.539Z,100265.78
2023-03-15T09:08:55.848Z,100263.44
2023-03-15T09:13:57.270Z,100277.25
2023-03-15T09:18:58.767Z,100269.28
2023-03-15T09:24:00.129Z,100280.81
2023-03-15T09:29:01.583Z,100292.38
2023-03-15T09:34:03.473Z,100295.81
2023-03-15T09:39:04.932Z,100289.13
2023-03-15T09:44:18.496Z,100303.75
2023-03-15T09:49:52.833Z,100306.28
2023-03-15T09:55:01.013Z,100312.66
2023-03-15T10:00:07.192Z,100327.72
2023-03-15T10:05:16.738Z,100326.56
2023-03-15T10:10:21.953Z,100323.47
2023-03-15T10:15:39.150Z,100319.13
2023-03-15T10:20:46.889Z,100328.69
2023-03-15T10:25:51.648Z,100325.22
2023-03-15T10:30:53.267Z,100325.56
2023-03-15T10:36:01.268Z,100333.97
2023-03-15T10:41:15.220Z,100330.66
2023-03-15T10:46:26.061Z,100328.41
2023-03-15T10:51:37.433Z,100319.53
2023-03-15T10:56:59.583Z,100318.50
2023-03-15T11:02:13.787Z,100313.13
2023-03-15T11:07:15.205Z,100317.44
2023-03-15T11:12:24.094Z,100315.06
2023-03-15T11:17:35.313Z,100335.31
2023-03-15T11:22:36.766Z,100326.41
2023-03-15T11:27:38.175Z,100332.47
2023-03-15T11:32:40.019Z,100348.84
2023-03-15T11:37:47.687Z,100349.47
2023-03-15T11:43:01.045Z,100351.25
2023-03-15T11:48:16.947Z,100341.59
2023-03-15T11:53:18.420Z,100339.53
2023-03-15T11:58:33.847Z,100363.13
2023-03-15T12:03:39.323Z,100352.44
2023-03-15T12:08:53.021Z,100357.25
2023-03-15T12:13:57.389Z,100354.22
2023-03-15T12:19:01.517Z,100374.44
2023-03-15T12:24:06.480Z,100375.97
2023-03-15T12:29:28.271Z,100371.00
2023-03-15T12:34:51.362Z,100384.94
2023-03-15T12:40:22.348Z,100385.25
2023-03-15T12:45:40.801Z,100385.41
2023-03-15T12:50:45.660Z,100388.13
2023-03-15T12:55:47.656Z,100373.06
2023-03-15T13:00:53.351Z,100373.28
2023-03-15T13:06:04.497Z,100387.00
2023-03-15T13:11:11.846Z,100383.53
2023-03-15T13:16:38.147Z,100378.41
2023-03-15T13:21:52.525Z,100377.50
2023-03-15T13:27:05.023Z,100369.78
2023-03-15T13:32:18.965Z,100371.28
2023-03-15T13:37:31.783Z,100366.66
2023-03-15T13:42:33.419Z,100364.09
2023-03-15T13:47:35.426Z,100358.13
2023-03-15T13:52:37.286Z,100351.59
2023-03-15T13:57:38.871Z,100346.63
2023-03-15T14:02:44.465Z,100346.91
2023-03-15T14:07:49.765Z,100362.09
2023-03-15T14:12:53.136Z,100363.53
2023-03-15T14:18:11.834Z,100357.09
2023-03-15T14:23:16.972Z,100353.91
2023-03-15T14:28:18.600Z,100355.94
2023-03-15T14:33:31.709Z,100352.81
2023-03-15T14:38:36.482Z,100363.19
2023-03-15T14:43:37.934Z,100357.19
2023-03-15T14:48:39.917Z,100367.31
2023-03-15T14:53:41.731Z,100366.78
2023-03-15T14:58:43.374Z,100378.81
2023-03-15T15:04:01.594Z,100390.94
2023-03-15T15:09:05.734Z,100380.38
2023-03-15T15:14:12.567Z,100399.59
2023-03-15T15:19:15.004Z,100407.44
2023-03-15T15:24:19.708Z,100385.09
2023-03-15T15:29:21.378Z,100410.00
2023-03-15T15:34:22.725Z,100405.03
2023-03-15T15:39:27.449Z,100409.97
2023-03-15T15:44:28.854Z,100408.75
2023-03-15T15:49:30.235Z,100420.78
2023-03-15T15:54:34.928Z,100430.69
2023-03-15T15:59:36.738Z,100435.53
2023-03-15T16:04:38.096Z,100442.25
2023-03-15T16:09:40.361Z,100448.44
2023-03-15T16:14:42.485Z,100449.75
2023-03-15T16:19:43.969Z,100446.31
2023-03-15T16:24:48.288Z,100449.56
2023-03-15T16:29:52.896Z,100451.19
2023-03-15T16:34:54.301Z,100458.22
2023-03-15T16:39:56.048Z,100453.25
2023-03-15T16:44:57.460Z,100462.91
2023-03-15T16:49:58.803Z,100446.00
2023-03-15T16:55:01.348Z,100452.03
2023-03-15T17:00:05.157Z,100467.31
2023-03-15T17:05:06.898Z,100462.06
2023-03-15T17:10:11.516Z,100464.00
2023-03-15T17:15:13.150Z,100468.97
2023-03-15T17:20:21.459Z,100475.66
2023-03-15T17:25:23.124Z,100482.91
2023-03-15T17:30:25.790Z,100499.47
2023-03-15T17:35:31.302Z,100501.91
2023-03-15T17:40:35.672Z,100505.63
2023-03-15T17:45:37.368Z,100511.25
2023-03-15T17:50:41.810Z,100505.59
2023-03-15T17:55:44.056Z,100525.66
2023-03-15T18:00:47.814Z,100527.88
2023-03-15T18:05:49.285Z,100524.03
2023-03-15T18:10:52.090Z,100525.91
2023-03-15T18:15:53.492Z,100529.50
2023-03-15T18:20:55.124Z,100545.19
2023-03-15T18:25:56.590Z,100540.72
2023-03-15T18:30:57.910Z,100550.91
2023-03-15T18:35:59.282Z,100558.28
2023-03-15T18:41:00.641Z,100547.56
2023-03-15T18:46:02.374Z,100563.09
2023-03-15T18:51:03.840Z,100545.91
2023-03-15T18:56:05.578Z,100554.81
2023-03-15T19:01:07.072Z,100560.69
2023-03-15T19:06:11.617Z,100565.31
2023-03-15T19:11:13.015Z,100568.06
2023-03-15T19:16:14.358Z,100562.53
2023-03-15T19:21:16.327Z,100574.16
2023-03-15T19:26:17.713Z,100573.91
2023-03-15T19:31:19.712Z,100580.97
2023-03-15T19:36:22.169Z,100596.13
2023-03-15T19:41:23.886Z,100585.81
2023-03-15T19:46:25.335Z,100602.91
2023-03-15T19:51:27.739Z,100598.53
2023-03-15T19:56:29.372Z,100619.81
2023-03-15T20:01:32.281Z,100620.66
2023-03-15T20:06:33.727Z,100621.03
2023-03-15T20:11:35.138Z,100626.41
2023-03-15T20:16:36.487Z,100625.25
2023-03-15T20:21:37.966Z,100638.06
2023-03-15T20:26:39.369Z,100636.81
2023-03-15T20:31:40.796Z,100634.88
2023-03-15T20:36:42.528Z,100626.06
2023-03-15T20:41:44.340Z,100634.78
2023-03-15T20:46:45.791Z,100643.22
2023-03-15T20:51:47.156Z,100636.66
2023-03-15T20:56:48.501Z,100641.91
2023-03-15T21:01:51.327Z,100647.28
2023-03-15T21:06:52.775Z,100649.59
2023-03-15T21:11:54.100Z,100650.78
2023-03-15T21:16:55.653Z,100657.78
2023-03-15T21:21:58.887Z,100652.81
2023-03-15T21:27:06.153Z,100648.66
2023-03-15T21:32:08.016Z,100650.13
2023-03-15T21:37:09.591Z,100658.84
2023-03-15T21:42:10.957Z,100660.28
2023-03-15T21:47:13.966Z,100652.44
2023-03-15T21:52:16.114Z,100670.22
2023-03-15T21:57:17.498Z,100673.03
2023-03-15T22:02:19.010Z,100655.44
2023-03-15T22:07:20.372Z,100651.66
2023-03-15T22:12:21.735Z,100658.22
2023-03-15T22:17:23.118Z,100666.84
2023-03-15T22:22:25.098Z,100661.38
2023-03-15T22:27:26.804Z,100646.84
2023-03-15T22:32:28.204Z,100658.88
2023-03-15T22:37:29.699Z,100646.31
2023-03-15T22:42:31.188Z,100658.97
2023-03-15T22:47:32.649Z,100667.25
2023-03-15T22:52:34.034Z,100657.31
2023-03-15T22:57:35.492Z,100652.50
2023-03-15T23:02:36.990Z,100661.41
2023-03-15T23:07:39.097Z,100661.19
2023-03-15T23:12:41.149Z,100657.81
2023-03-15T23:17:45.836Z,100662.53
2023-03-15T23:22:48.262Z,100660.19
2023-03-15T23:27:50.632Z,100680.78
2023-03-15T23:32:57.422Z,100668.47
2023-03-15T23:37:58.997Z,100672.19
2023-03-15T23:43:00.450Z,100666.47
2023-03-15T23:48:05.777Z,100677.97
2023-03-15T23:53:07.127Z,100691.19
2023-03-15T23:58:08.555Z,100688.63
